createdAt,value
2022-11-10T00:02:30.678Z,18.98
2022-11-10T00:05:15.849Z,16.25
2022-11-10T00:08:11.060Z,18.42
2022-11-10T00:10:59.050Z,17.13
2022-11-10T00:14:06.924Z,16.05
2022-11-10T00:17:01.220Z,18.73
2022-11-10T00:19:46.092Z,18.30
2022-11-10T00:22:31.329Z,17.70
2022-11-10T00:25:16.176Z,16.55
2022-11-10T00:28:01.040Z,19.85
2022-11-10T00:30:46.957Z,23.30
2022-11-10T00:33:35.022Z,21.35
2022-11-10T00:36:20.125Z,23.67
2022-11-10T00:39:05.481Z,19.88
2022-11-10T00:41:50.479Z,20.50
2022-11-10T00:44:35.344Z,22.10
2022-11-10T00:47:20.359Z,22.70
2022-11-10T00:50:05.716Z,24.42
2022-11-10T00:52:50.546Z,18.80
2022-11-10T00:55:38.764Z,16.02
2022-11-10T00:58:23.907Z,18.63
2022-11-10T01:01:10.079Z,20.85
2022-11-10T01:03:55.699Z,21.65
2022-11-10T01:06:41.018Z,28.05
2022-11-10T01:09:26.226Z,19.23
2022-11-10T01:12:11.574Z,21.67
2022-11-10T01:14:57.020Z,20.67
2022-11-10T01:17:41.998Z,23.27
2022-11-10T01:20:27.165Z,33.63
2022-11-10T01:23:12.414Z,21.33
2022-11-10T01:26:03.585Z,34.03
2022-11-10T01:28:48.548Z,25.17
2022-11-10T01:31:33.853Z,23.92
2022-11-10T01:34:18.664Z,20.38
2022-11-10T01:37:03.677Z,13.88
2022-11-10T01:39:48.871Z,15.70
2022-11-10T01:43:03.222Z,13.15
2022-11-10T01:49:02.212Z,7.70
2022-11-10T01:52:01.867Z,7.45
2022-11-10T01:54:49.721Z,5.78
2022-11-10T01:57:36.637Z,5.07
2022-11-10T02:00:22.731Z,4.80
2022-11-10T02:03:11.615Z,7.40
2022-11-10T02:05:56.786Z,7.35
2022-11-10T02:08:42.983Z,4.80
2022-11-10T02:11:28.800Z,6.18
2022-11-10T02:14:15.552Z,6.75
2022-11-10T02:17:00.664Z,7.53
2022-11-10T02:19:45.669Z,8.38
2022-11-10T02:22:32.082Z,7.60
2022-11-10T02:25:20.767Z,8.70
2022-11-10T02:28:06.055Z,9.82
2022-11-10T02:30:51.677Z,8.90
2022-11-10T02:33:36.859Z,9.52
2022-11-10T02:36:22.048Z,5.70
2022-11-10T02:39:07.335Z,8.00
2022-11-10T02:41:52.533Z,4.50
2022-11-10T02:44:38.172Z,6.50
2022-11-10T02:47:23.569Z,6.22
2022-11-10T02:50:08.923Z,8.27
2022-11-10T02:52:53.766Z,8.02
2022-11-10T02:55:38.763Z,5.78
2022-11-10T02:58:23.695Z,5.57
2022-11-10T03:01:08.717Z,6.22
2022-11-10T03:03:53.496Z,6.03
2022-11-10T03:06:38.669Z,5.28
2022-11-10T03:09:23.613Z,6.15
2022-11-10T03:12:08.921Z,5.53
2022-11-10T03:14:54.173Z,5.85
2022-11-10T03:17:39.248Z,5.60
2022-11-10T03:20:24.674Z,5.07
2022-11-10T03:23:09.917Z,6.35
2022-11-10T03:25:55.055Z,5.82
2022-11-10T03:28:40.388Z,4.85
2022-11-10T03:31:25.246Z,5.70
2022-11-10T03:34:10.510Z,5.57
2022-11-10T03:36:55.612Z,6.97
2022-11-10T03:39:40.783Z,6.13
2022-11-10T03:42:25.772Z,5.93
2022-11-10T03:45:12.748Z,6.93
2022-11-10T03:47:57.745Z,4.43
2022-11-10T03:50:42.635Z,7.85
2022-11-10T03:53:27.592Z,5.30
2022-11-10T03:56:13.020Z,6.50
2022-11-10T03:58:58.265Z,5.50
2022-11-10T04:01:43.257Z,5.72
2022-11-10T04:04:46.938Z,8.10
2022-11-10T04:07:51.092Z,8.48
2022-11-10T04:10:36.509Z,6.30
2022-11-10T04:13:40.155Z,9.00
2022-11-10T04:16:25.264Z,5.70
2022-11-10T04:19:10.332Z,7.10
2022-11-10T04:21:55.874Z,5.65
2022-11-10T04:24:41.004Z,6.95
2022-11-10T04:27:26.264Z,7.38
2022-11-10T04:30:11.408Z,7.60
2022-11-10T04:32:56.455Z,5.82
2022-11-10T04:35:41.363Z,5.40
2022-11-10T04:38:26.256Z,7.57
2022-11-10T04:41:11.835Z,5.15
2022-11-10T04:43:58.122Z,7.32
2022-11-10T04:46:44.131Z,5.80
2022-11-10T04:49:28.925Z,6.75
2022-11-10T04:52:13.700Z,7.55
2022-11-10T04:54:58.519Z,8.43
2022-11-10T04:57:43.460Z,8.18
2022-11-10T05:00:28.770Z,7.45
2022-11-10T05:03:14.705Z,7.90
2022-11-10T05:05:59.971Z,6.90
2022-11-10T05:08:45.940Z,6.93
2022-11-10T05:11:30.780Z,7.18
2022-11-10T05:14:15.744Z,6.03
2022-11-10T05:17:00.761Z,7.82
2022-11-10T05:19:47.390Z,7.28
2022-11-10T05:22:32.480Z,7.65
2022-11-10T05:25:17.684Z,8.05
2022-11-10T05:28:04.426Z,8.07
2022-11-10T05:30:49.836Z,8.55
2022-11-10T05:33:36.067Z,9.30
2022-11-10T05:36:21.211Z,8.18
2022-11-10T05:39:06.256Z,7.82
2022-11-10T05:41:51.591Z,7.10
2022-11-10T05:44:36.772Z,7.50
2022-11-10T05:47:21.637Z,6.97
2022-11-10T05:50:08.434Z,8.60
2022-11-10T05:52:55.010Z,8.25
2022-11-10T05:55:40.677Z,8.38
2022-11-10T05:58:26.029Z,6.00
2022-11-10T06:01:11.207Z,6.35
2022-11-10T06:03:56.140Z,7.43
2022-11-10T06:06:41.067Z,7.72
2022-11-10T06:09:26.534Z,8.32
2022-11-10T06:12:11.403Z,11.18
2022-11-10T06:14:59.599Z,7.78
2022-11-10T06:17:45.430Z,9.80
2022-11-10T06:20:30.672Z,7.85
2022-11-10T06:23:15.962Z,8.75
2022-11-10T06:26:01.305Z,10.80
2022-11-10T06:28:46.425Z,8.52
2022-11-10T06:31:31.260Z,7.65
2022-11-10T06:34:16.852Z,12.55
2022-11-10T06:37:01.905Z,7.68
2022-11-10T06:39:47.514Z,9.73
2022-11-10T06:42:32.594Z,7.95
2022-11-10T06:45:17.818Z,7.93
2022-11-10T06:48:05.471Z,8.23
2022-11-10T06:50:50.750Z,11.93
2022-11-10T06:53:35.739Z,16.63
2022-11-10T06:56:20.621Z,51.28
2022-11-10T06:59:05.965Z,38.05
2022-11-10T07:01:51.020Z,24.25
2022-11-10T07:04:36.371Z,20.25
2022-11-10T07:07:21.414Z,18.27
2022-11-10T07:10:07.797Z,19.10
2022-11-10T07:12:57.715Z,17.48
2022-11-10T07:15:43.259Z,21.88
2022-11-10T07:18:28.105Z,21.52
2022-11-10T07:21:13.216Z,18.90
2022-11-10T07:23:58.131Z,18.58
2022-11-10T07:26:42.971Z,16.52
2022-11-10T07:29:27.870Z,15.80
2022-11-10T07:32:13.118Z,14.10
2022-11-10T07:34:57.911Z,14.27
2022-11-10T07:37:43.072Z,15.95
2022-11-10T07:40:28.207Z,16.17
2022-11-10T07:43:13.280Z,12.27
2022-11-10T07:45:59.773Z,12.90
2022-11-10T07:48:44.879Z,12.93
2022-11-10T07:51:30.826Z,13.70
2022-11-10T07:54:15.981Z,17.23
2022-11-10T07:57:00.880Z,12.93
2022-11-10T07:59:45.873Z,12.25
2022-11-10T08:02:30.678Z,11.95
2022-11-10T08:05:15.935Z,13.15
2022-11-10T08:08:01.061Z,14.45
2022-11-10T08:10:46.151Z,11.35
2022-11-10T08:13:31.101Z,12.27
2022-11-10T08:16:16.168Z,9.85
2022-11-10T08:19:01.773Z,8.93
2022-11-10T08:21:46.747Z,9.27
2022-11-10T08:24:31.619Z,20.38
2022-11-10T08:27:16.372Z,10.57
2022-11-10T08:30:01.564Z,13.52
2022-11-10T08:32:46.683Z,10.77
2022-11-10T08:35:34.535Z,10.77
2022-11-10T08:38:24.302Z,8.07
2022-11-10T08:41:09.224Z,13.27
2022-11-10T08:43:54.056Z,10.68
2022-11-10T08:46:39.144Z,11.07
2022-11-10T08:49:23.907Z,7.63
2022-11-10T08:52:10.523Z,6.05
2022-11-10T08:54:55.722Z,11.93
2022-11-10T08:57:40.771Z,7.50
2022-11-10T09:00:25.903Z,9.48
2022-11-10T09:03:22.786Z,7.75
2022-11-10T09:06:08.248Z,7.82
2022-11-10T09:08:53.198Z,7.40
2022-11-10T09:11:38.046Z,6.57
2022-11-10T09:14:22.997Z,5.72
2022-11-10T09:17:08.157Z,8.65
2022-11-10T09:19:53.040Z,7.63
2022-11-10T09:22:39.357Z,8.35
2022-11-10T09:25:24.513Z,6.70
2022-11-10T09:28:13.500Z,7.75
2022-11-10T09:30:58.360Z,12.80
2022-11-10T09:33:43.308Z,8.20
2022-11-10T09:36:28.009Z,7.53
2022-11-10T09:39:13.012Z,6.75
2022-11-10T09:41:58.174Z,5.90
2022-11-10T09:44:52.065Z,4.35
2022-11-10T09:48:01.681Z,7.32
2022-11-10T09:50:52.997Z,6.68
2022-11-10T09:53:44.925Z,6.90
2022-11-10T09:56:37.432Z,6.70
2022-11-10T09:59:32.343Z,6.35
2022-11-10T10:02:32.171Z,6.80
2022-11-10T10:05:29.297Z,8.35
2022-11-10T10:08:45.219Z,6.00
2022-11-10T10:12:00.048Z,6.40
2022-11-10T10:18:02.494Z,7.72
2022-11-10T10:20:56.847Z,6.75
2022-11-10T10:24:08.578Z,4.95
2022-11-10T10:26:56.739Z,4.43
2022-11-10T10:29:51.306Z,5.00
2022-11-10T10:32:36.276Z,6.93
2022-11-10T10:35:21.611Z,4.28
2022-11-10T10:38:18.826Z,7.32
2022-11-10T10:41:18.292Z,7.95
2022-11-10T10:44:12.361Z,5.72
2022-11-10T10:47:01.063Z,6.15
2022-11-10T10:49:46.562Z,6.60
2022-11-10T10:52:32.396Z,5.55
2022-11-10T10:55:17.648Z,6.13
2022-11-10T10:58:18.447Z,4.47
2022-11-10T11:01:06.713Z,4.93
2022-11-10T11:03:53.003Z,8.05
2022-11-10T11:06:38.251Z,4.22
2022-11-10T11:09:29.268Z,6.47
2022-11-10T11:12:26.778Z,5.07
2022-11-10T11:15:29.478Z,4.25
2022-11-10T11:18:17.186Z,5.43
2022-11-10T11:21:42.808Z,3.88
2022-11-10T11:24:51.125Z,4.90
2022-11-10T11:27:45.159Z,4.53
2022-11-10T11:33:34.035Z,5.43
2022-11-10T11:36:36.426Z,5.75
2022-11-10T11:39:38.210Z,3.58
2022-11-10T11:42:33.023Z,4.57
2022-11-10T11:45:49.035Z,4.65
2022-11-10T11:48:55.819Z,5.85
2022-11-10T11:52:19.262Z,3.38
2022-11-10T11:55:07.613Z,6.35
2022-11-10T11:57:58.592Z,5.18
2022-11-10T12:01:15.308Z,4.40
2022-11-10T12:04:00.327Z,5.53
2022-11-10T12:07:03.537Z,3.92
2022-11-10T12:10:04.724Z,3.47
2022-11-10T12:13:18.156Z,7.18
2022-11-10T12:16:21.006Z,4.80
2022-11-10T12:19:18.084Z,4.43
2022-11-10T12:22:13.372Z,2.72
2022-11-10T12:25:35.980Z,3.45
2022-11-10T12:28:29.846Z,6.93
2022-11-10T12:31:24.118Z,4.60
2022-11-10T12:34:28.391Z,5.30
2022-11-10T12:37:28.201Z,7.40
2022-11-10T12:40:17.781Z,6.65
2022-11-10T12:43:11.304Z,4.55
2022-11-10T12:46:00.038Z,6.10
2022-11-10T12:49:01.585Z,4.07
2022-11-10T12:52:33.428Z,4.55
2022-11-10T12:55:23.166Z,4.05
2022-11-10T12:58:14.029Z,5.25
2022-11-10T13:01:04.702Z,7.13
2022-11-10T13:03:56.338Z,4.88
2022-11-10T13:06:52.175Z,4.40
2022-11-10T13:09:41.146Z,5.10
2022-11-10T13:12:26.068Z,5.68
2022-11-10T13:15:50.099Z,4.28
2022-11-10T13:18:53.449Z,4.70
2022-11-10T13:21:50.893Z,5.63
2022-11-10T13:24:40.919Z,4.40
2022-11-10T13:27:26.305Z,5.20
2022-11-10T13:30:11.294Z,3.53
2022-11-10T13:33:25.034Z,5.20
2022-11-10T13:36:10.179Z,3.55
2022-11-10T13:38:55.765Z,3.25
2022-11-10T13:41:49.487Z,5.55
2022-11-10T13:44:39.722Z,4.75
2022-11-10T13:47:53.304Z,3.20
2022-11-10T13:50:47.673Z,7.00
2022-11-10T13:54:00.403Z,5.90
2022-11-10T13:57:04.136Z,4.35
2022-11-10T13:59:56.443Z,4.67
2022-11-10T14:03:31.024Z,4.25
2022-11-10T14:06:27.893Z,4.40
2022-11-10T14:09:34.945Z,7.03
2022-11-10T14:12:43.768Z,4.40
2022-11-10T14:15:38.968Z,4.78
2022-11-10T14:18:28.376Z,5.93
2022-11-10T14:21:23.070Z,5.78
2022-11-10T14:24:16.657Z,6.20
2022-11-10T14:27:15.692Z,5.68
2022-11-10T14:30:08.735Z,3.53
2022-11-10T14:33:10.420Z,3.97
2022-11-10T14:35:58.393Z,8.13
2022-11-10T14:38:44.815Z,5.43
2022-11-10T14:41:29.848Z,4.82
2022-11-10T14:44:22.227Z,6.25
2022-11-10T14:47:25.619Z,4.32
2022-11-10T14:50:13.934Z,5.38
2022-11-10T14:53:04.058Z,5.45
2022-11-10T14:55:54.716Z,7.18
2022-11-10T14:58:43.343Z,7.97
2022-11-10T15:01:36.842Z,4.40
2022-11-10T15:04:33.253Z,7.75
2022-11-10T15:07:19.259Z,6.53
2022-11-10T15:10:26.198Z,5.78
2022-11-10T15:13:14.135Z,6.55
2022-11-10T15:16:28.206Z,5.35
2022-11-10T15:19:26.977Z,8.02
2022-11-10T15:22:19.749Z,7.60
2022-11-10T15:25:14.973Z,7.80
2022-11-10T15:28:04.197Z,8.05
2022-11-10T15:31:12.936Z,6.72
2022-11-10T15:34:04.213Z,8.35
2022-11-10T15:36:49.247Z,6.50
2022-11-10T15:39:34.427Z,9.80
2022-11-10T15:42:24.773Z,8.13
2022-11-10T15:45:10.029Z,10.05
2022-11-10T15:47:55.743Z,7.18
2022-11-10T15:50:42.510Z,9.18
2022-11-10T15:53:34.113Z,8.95
2022-11-10T15:56:22.493Z,8.20
2022-11-10T15:59:09.705Z,9.52
2022-11-10T16:01:54.886Z,7.10
2022-11-10T16:04:39.897Z,7.03
2022-11-10T16:07:24.714Z,7.30
2022-11-10T16:10:10.156Z,9.07
2022-11-10T16:12:55.474Z,8.02
2022-11-10T16:15:42.069Z,7.88
2022-11-10T16:18:29.820Z,8.25
2022-11-10T16:21:20.925Z,10.52
2022-11-10T16:24:06.015Z,12.75
2022-11-10T16:26:51.341Z,11.70
2022-11-10T16:29:36.749Z,10.55
2022-11-10T16:32:21.586Z,10.65
2022-11-10T16:35:11.254Z,9.13
2022-11-10T16:37:56.492Z,7.50
2022-11-10T16:40:41.702Z,7.57
2022-11-10T16:43:27.738Z,9.48
2022-11-10T16:46:25.581Z,7.20
2022-11-10T16:49:26.252Z,9.05
2022-11-10T16:52:16.120Z,8.15
2022-11-10T16:55:01.001Z,6.25
2022-11-10T16:57:46.069Z,9.20
2022-11-10T17:00:31.032Z,7.57
2022-11-10T17:03:35.422Z,8.27
2022-11-10T17:06:21.520Z,11.80
2022-11-10T17:09:19.367Z,11.63
2022-11-10T17:12:04.627Z,9.77
2022-11-10T17:14:49.556Z,11.05
2022-11-10T17:17:36.382Z,11.70
2022-11-10T17:20:25.339Z,11.05
2022-11-10T17:23:13.535Z,15.23
2022-11-10T17:25:59.080Z,12.43
2022-11-10T17:28:45.144Z,24.17
2022-11-10T17:31:29.985Z,17.15
2022-11-10T17:34:15.087Z,21.70
2022-11-10T17:37:00.035Z,23.40
2022-11-10T17:39:45.357Z,33.15
2022-11-10T17:42:30.387Z,25.40
2022-11-10T17:45:21.818Z,23.40
2022-11-10T17:48:07.567Z,26.35
2022-11-10T17:50:52.620Z,24.65
2022-11-10T17:53:37.740Z,22.40
2022-11-10T17:56:22.971Z,21.88
2022-11-10T17:59:07.812Z,21.33
2022-11-10T18:01:52.888Z,22.67
2022-11-10T18:04:38.287Z,21.10
2022-11-10T18:07:23.473Z,21.77
2022-11-10T18:10:12.724Z,18.80
2022-11-10T18:12:57.707Z,35.83
2022-11-10T18:15:44.889Z,29.15
2022-11-10T18:18:30.121Z,25.80
2022-11-10T18:21:15.359Z,26.40
2022-11-10T18:24:00.323Z,35.25
2022-11-10T18:26:46.421Z,34.05
2022-11-10T18:29:31.308Z,33.33
2022-11-10T18:32:16.379Z,37.70
2022-11-10T18:35:01.641Z,28.77
2022-11-10T18:37:47.242Z,26.15
2022-11-10T18:40:32.562Z,31.92
2022-11-10T18:43:17.589Z,32.58
2022-11-10T18:46:03.039Z,30.45
2022-11-10T18:48:48.108Z,29.98
2022-11-10T18:51:33.700Z,22.42
2022-11-10T18:54:18.702Z,20.00
2022-11-10T18:57:03.901Z,22.27
2022-11-10T18:59:49.046Z,19.55
2022-11-10T19:02:34.539Z,16.73
2022-11-10T19:05:19.635Z,18.50
2022-11-10T19:08:07.046Z,13.95
2022-11-10T19:10:52.952Z,17.50
2022-11-10T19:13:38.407Z,16.55
2022-11-10T19:16:23.366Z,17.70
2022-11-10T19:19:10.117Z,20.13
2022-11-10T19:21:55.220Z,25.73
2022-11-10T19:25:00.863Z,24.13
2022-11-10T19:27:45.495Z,23.83
2022-11-10T19:30:30.487Z,21.67
2022-11-10T19:33:15.905Z,23.73
2022-11-10T19:36:06.728Z,27.40
2022-11-10T19:38:53.914Z,26.20
2022-11-10T19:41:39.202Z,27.27
2022-11-10T19:44:24.329Z,25.13
2022-11-10T19:47:09.292Z,28.02
2022-11-10T19:49:54.552Z,23.17
2022-11-10T19:52:39.484Z,25.38
2022-11-10T19:55:24.658Z,28.42
2022-11-10T19:58:09.406Z,24.60
2022-11-10T20:00:55.472Z,26.00
2022-11-10T20:03:40.876Z,28.92
2022-11-10T20:06:25.964Z,29.38
2022-11-10T20:09:11.239Z,25.45
2022-11-10T20:11:56.061Z,28.38
2022-11-10T20:14:40.950Z,25.70
2022-11-10T20:17:25.865Z,26.55
2022-11-10T20:20:10.950Z,23.50
2022-11-10T20:23:00.781Z,24.73
2022-11-10T20:25:45.935Z,27.70
2022-11-10T20:28:31.019Z,25.17
2022-11-10T20:31:20.611Z,26.50
2022-11-10T20:34:05.484Z,25.20
2022-11-10T20:36:50.624Z,26.63
2022-11-10T20:39:35.696Z,21.92
2022-11-10T20:42:20.855Z,22.52
2022-11-10T20:45:06.452Z,22.15
2022-11-10T20:47:51.620Z,21.48
2022-11-10T20:50:39.816Z,23.65
2022-11-10T20:53:25.807Z,28.38
2022-11-10T20:56:12.141Z,27.05
2022-11-10T20:58:58.506Z,31.75
2022-11-10T21:01:43.553Z,34.85
2022-11-10T21:04:28.719Z,34.53
2022-11-10T21:07:14.172Z,33.42
2022-11-10T21:09:59.252Z,39.25
2022-11-10T21:12:50.290Z,28.98
2022-11-10T21:15:39.327Z,32.13
2022-11-10T21:18:27.731Z,32.92
2022-11-10T21:21:27.909Z,30.77
2022-11-10T21:24:13.303Z,31.20
2022-11-10T21:26:58.753Z,29.05
2022-11-10T21:29:43.825Z,25.20
2022-11-10T21:32:29.089Z,27.63
2022-11-10T21:35:13.965Z,28.30
2022-11-10T21:37:59.238Z,25.17
2022-11-10T21:40:44.026Z,31.80
2022-11-10T21:43:28.947Z,33.83
2022-11-10T21:46:14.112Z,26.25
2022-11-10T21:49:03.147Z,29.48
2022-11-10T21:51:52.606Z,27.23
2022-11-10T21:54:37.558Z,25.63
2022-11-10T21:57:22.623Z,28.35
2022-11-10T22:00:08.181Z,27.40
2022-11-10T22:02:58.605Z,29.17
2022-11-10T22:05:43.378Z,22.27
2022-11-10T22:08:28.407Z,22.40
2022-11-10T22:11:34.786Z,20.50
2022-11-10T22:14:19.883Z,18.10
2022-11-10T22:17:34.153Z,23.55
2022-11-10T22:20:19.293Z,18.38
2022-11-10T22:23:04.357Z,20.77
2022-11-10T22:25:49.540Z,31.58
2022-11-10T22:28:34.569Z,24.75
2022-11-10T22:31:19.779Z,26.98
2022-11-10T22:34:04.919Z,24.85
2022-11-10T22:36:50.232Z,20.52
2022-11-10T22:39:53.991Z,19.27
2022-11-10T22:42:57.905Z,13.88
2022-11-10T22:45:44.879Z,16.08
2022-11-10T22:48:33.626Z,17.27
2022-11-10T22:51:18.559Z,17.45
2022-11-10T22:54:05.325Z,16.23
2022-11-10T22:56:51.808Z,14.20
2022-11-10T22:59:36.766Z,15.85
2022-11-10T23:02:21.792Z,14.77
2022-11-10T23:05:06.844Z,13.52
2022-11-10T23:07:51.952Z,12.65
2022-11-10T23:10:36.892Z,16.05
2022-11-10T23:13:22.167Z,14.63
2022-11-10T23:16:12.824Z,15.18
2022-11-10T23:18:58.642Z,15.38
2022-11-10T23:21:43.375Z,14.35
2022-11-10T23:24:28.408Z,13.98
2022-11-10T23:27:13.227Z,14.68
2022-11-10T23:29:58.105Z,15.85
2022-11-10T23:32:43.025Z,16.17
2022-11-10T23:35:27.929Z,14.70
2022-11-10T23:38:12.915Z,14.50
2022-11-10T23:40:59.264Z,12.85
2022-11-10T23:43:44.737Z,18.27
2022-11-10T23:46:29.612Z,13.05
2022-11-10T23:49:14.856Z,16.17
2022-11-10T23:52:00.050Z,15.07
2022-11-10T23:54:45.012Z,13.57
2022-11-10T23:57:30.276Z,14.20
